createdAt,value
2018-12-03T00:02:06.149Z,89.87
2018-12-03T00:04:34.714Z,91.73
2018-12-03T00:07:03.879Z,88.20
2018-12-03T00:09:33.091Z,90.57
2018-12-03T00:12:01.994Z,88.77
2018-12-03T00:14:30.510Z,90.10
2018-12-03T00:16:59.401Z,90.93
2018-12-03T00:19:27.995Z,89.80
2018-12-03T00:21:56.646Z,87.70
2018-12-03T00:24:25.426Z,90.53
2018-12-03T00:26:54.563Z,88.50
2018-12-03T00:29:24.064Z,87.87
2018-12-03T00:31:53.367Z,90.53
2018-12-03T00:34:21.991Z,85.53
2018-12-03T00:36:50.695Z,87.07
2018-12-03T00:39:19.596Z,88.03
2018-12-03T00:41:48.098Z,85.77
2018-12-03T00:44:16.605Z,90.67
2018-12-03T00:46:45.218Z,92.70
2018-12-03T00:49:13.990Z,90.93
2018-12-03T00:51:42.549Z,89.50
2018-12-03T00:54:11.127Z,89.13
2018-12-03T00:56:39.672Z,86.67
2018-12-03T00:59:08.188Z,89.10
2018-12-03T01:01:37.305Z,86.80
2018-12-03T01:04:06.094Z,87.63
2018-12-03T01:06:34.764Z,87.73
2018-12-03T01:09:03.704Z,89.37
2018-12-03T01:11:32.428Z,89.07
2018-12-03T01:14:01.502Z,91.90
2018-12-03T01:16:30.077Z,89.67
2018-12-03T01:18:58.818Z,86.60
2018-12-03T01:21:27.416Z,92.17
2018-12-03T01:23:55.985Z,88.73
2018-12-03T01:26:25.320Z,92.70
2018-12-03T01:28:53.897Z,88.60
2018-12-03T01:31:22.472Z,90.37
2018-12-03T01:33:52.534Z,88.53
2018-12-03T01:36:21.139Z,90.77
2018-12-03T01:38:50.464Z,90.37
2018-12-03T01:41:19.073Z,93.87
2018-12-03T01:43:47.570Z,88.37
2018-12-03T01:46:16.364Z,90.13
2018-12-03T01:48:45.510Z,89.33
2018-12-03T01:51:14.115Z,94.40
2018-12-03T01:53:42.728Z,89.80
2018-12-03T01:56:11.293Z,90.90
2018-12-03T01:58:39.877Z,92.10
2018-12-03T02:01:08.484Z,93.60
2018-12-03T02:03:37.220Z,92.07
2018-12-03T02:06:05.805Z,90.80
2018-12-03T02:08:34.761Z,91.43
2018-12-03T02:11:03.423Z,91.63
2018-12-03T02:13:32.076Z,92.33
2018-12-03T02:16:01.901Z,90.40
2018-12-03T02:18:31.361Z,90.50
2018-12-03T02:20:59.914Z,89.70
2018-12-03T02:23:28.619Z,90.97
2018-12-03T02:25:57.685Z,93.77
2018-12-03T02:28:26.808Z,92.73
2018-12-03T02:30:56.452Z,94.47
2018-12-03T02:33:25.828Z,96.23
2018-12-03T02:35:55.006Z,94.57
2018-12-03T02:38:23.712Z,93.37
2018-12-03T02:40:52.938Z,94.67
2018-12-03T02:43:21.501Z,94.13
2018-12-03T02:45:50.048Z,93.50
2018-12-03T02:48:18.639Z,93.13
2018-12-03T02:50:47.397Z,92.50
2018-12-03T02:53:17.173Z,96.87
2018-12-03T02:55:45.916Z,95.53
2018-12-03T02:58:14.631Z,95.33
2018-12-03T03:00:44.300Z,93.67
2018-12-03T03:03:13.545Z,94.27
2018-12-03T03:05:42.142Z,95.33
2018-12-03T03:08:10.712Z,89.23
2018-12-03T03:10:39.220Z,94.77
2018-12-03T03:13:07.812Z,95.97
2018-12-03T03:15:36.774Z,94.60
2018-12-03T03:18:06.346Z,94.30
2018-12-03T03:20:34.925Z,93.73
2018-12-03T03:23:03.473Z,93.83
2018-12-03T03:25:32.724Z,93.37
2018-12-03T03:28:01.865Z,89.53
2018-12-03T03:30:30.594Z,94.00
2018-12-03T03:32:59.089Z,91.67
2018-12-03T03:35:27.576Z,91.80
2018-12-03T03:37:56.444Z,92.00
2018-12-03T03:40:24.983Z,94.30
2018-12-03T03:42:53.614Z,94.50
2018-12-03T03:45:23.545Z,91.10
2018-12-03T03:47:52.067Z,92.10
2018-12-03T03:50:20.563Z,92.50
2018-12-03T03:52:49.060Z,94.73
2018-12-03T03:55:17.678Z,91.40
2018-12-03T03:57:46.246Z,92.63
2018-12-03T04:00:15.826Z,88.60
2018-12-03T04:02:44.424Z,91.50
2018-12-03T04:05:13.934Z,91.13
2018-12-03T04:07:43.436Z,94.90
2018-12-03T04:10:12.699Z,89.00
2018-12-03T04:12:41.727Z,89.77
2018-12-03T04:15:11.337Z,88.27
2018-12-03T04:17:39.856Z,88.97
2018-12-03T04:20:12.669Z,82.60
2018-12-03T04:22:41.291Z,89.13
2018-12-03T04:25:10.793Z,88.53
2018-12-03T04:27:39.384Z,93.67
2018-12-03T04:30:13.215Z,91.17
2018-12-03T04:32:41.820Z,89.50
2018-12-03T04:35:10.850Z,88.87
2018-12-03T04:37:39.416Z,91.23
2018-12-03T04:40:09.832Z,90.67
2018-12-03T04:42:38.462Z,88.93
2018-12-03T04:45:11.599Z,90.33
2018-12-03T04:47:40.134Z,89.97
2018-12-03T04:50:12.267Z,90.33
2018-12-03T04:52:40.939Z,91.03
2018-12-03T04:55:09.926Z,90.50
2018-12-03T04:57:38.915Z,92.83
2018-12-03T05:00:12.547Z,89.63
2018-12-03T05:02:41.378Z,94.53
2018-12-03T05:05:10.250Z,95.20
2018-12-03T05:07:38.798Z,95.23
2018-12-03T05:10:24.809Z,98.30
2018-12-03T05:12:53.991Z,94.90
2018-12-03T05:15:22.531Z,93.87
2018-12-03T05:17:51.346Z,92.60
2018-12-03T05:20:21.296Z,89.93
2018-12-03T05:22:49.808Z,86.13
2018-12-03T05:25:19.417Z,90.63
2018-12-03T05:27:47.109Z,90.90
2018-12-03T05:30:16.594Z,90.87
2018-12-03T05:32:45.640Z,91.63
2018-12-03T05:35:18.646Z,88.27
2018-12-03T05:37:47.566Z,92.47
2018-12-03T05:40:17.466Z,94.40
2018-12-03T05:42:46.153Z,88.17
2018-12-03T05:45:14.654Z,89.70
2018-12-03T05:47:43.265Z,90.83
2018-12-03T05:50:12.914Z,91.93
2018-12-03T05:52:41.566Z,90.73
2018-12-03T05:55:11.255Z,88.10
2018-12-03T05:57:39.745Z,92.87
2018-12-03T06:00:12.176Z,93.10
2018-12-03T06:02:40.710Z,99.87
2018-12-03T06:05:10.168Z,98.20
2018-12-03T06:07:38.937Z,104.97
2018-12-03T06:10:14.526Z,102.63
2018-12-03T06:12:43.089Z,101.63
2018-12-03T06:15:13.522Z,100.43
2018-12-03T06:17:42.040Z,105.60
2018-12-03T06:20:14.746Z,102.90
2018-12-03T06:22:43.430Z,106.53
2018-12-03T06:25:14.000Z,105.57
2018-12-03T06:27:42.596Z,101.60
2018-12-03T06:30:13.853Z,102.03
2018-12-03T06:32:42.405Z,103.30
2018-12-03T06:35:12.710Z,99.07
2018-12-03T06:37:41.710Z,99.67
2018-12-03T06:40:13.184Z,101.33
2018-12-03T06:42:41.998Z,96.00
2018-12-03T06:45:12.065Z,98.80
2018-12-03T06:47:42.850Z,98.67
2018-12-03T06:50:12.208Z,98.73
2018-12-03T06:52:41.458Z,100.50
2018-12-03T06:55:11.002Z,96.63
2018-12-03T06:57:39.559Z,98.07
2018-12-03T07:00:15.288Z,90.97
2018-12-03T07:02:44.176Z,97.93
2018-12-03T07:05:13.196Z,95.90
2018-12-03T07:07:43.626Z,95.17
2018-12-03T07:10:13.713Z,92.73
2018-12-03T07:12:42.607Z,98.03
2018-12-03T07:15:13.787Z,97.07
2018-12-03T07:17:42.571Z,97.27
2018-12-03T07:20:13.170Z,91.87
2018-12-03T07:22:41.813Z,96.63
2018-12-03T07:25:11.630Z,47.80
2018-12-03T07:27:40.993Z,95.77
2018-12-03T07:30:15.935Z,93.53
2018-12-03T07:32:45.383Z,92.70
2018-12-03T07:35:13.905Z,92.43
2018-12-03T07:37:42.999Z,89.07
2018-12-03T07:40:12.257Z,91.60
2018-12-03T07:42:41.673Z,56.37
2018-12-03T07:45:12.726Z,87.97
2018-12-03T07:47:42.209Z,88.23
2018-12-03T07:50:12.356Z,85.60
2018-12-03T07:52:41.890Z,85.67
2018-12-03T07:55:11.721Z,86.13
2018-12-03T07:57:41.791Z,77.60
2018-12-03T08:00:15.223Z,72.40
2018-12-03T08:02:43.757Z,81.30
2018-12-03T08:05:12.404Z,81.97
2018-12-03T08:07:40.998Z,79.60
2018-12-03T08:10:15.208Z,82.20
2018-12-03T08:12:44.300Z,47.73
2018-12-03T08:15:18.033Z,82.63
2018-12-03T08:17:51.601Z,80.27
2018-12-03T08:20:28.202Z,79.87
2018-12-03T08:23:01.223Z,80.47
2018-12-03T08:25:30.158Z,80.63
2018-12-03T08:27:58.677Z,83.20
2018-12-03T08:30:27.329Z,79.67
2018-12-03T08:32:56.978Z,78.30
2018-12-03T08:35:25.636Z,79.17
2018-12-03T08:37:55.033Z,74.03
2018-12-03T08:40:23.618Z,66.67
2018-12-03T08:42:54.110Z,75.30
2018-12-03T08:45:23.887Z,88.00
2018-12-03T08:47:52.832Z,77.23
2018-12-03T08:50:24.740Z,74.93
2018-12-03T08:52:54.039Z,74.03
2018-12-03T08:55:22.581Z,75.40
2018-12-03T08:57:51.419Z,73.47
2018-12-03T09:00:21.846Z,75.73
2018-12-03T09:02:59.289Z,71.33
2018-12-03T09:05:33.199Z,70.87
2018-12-03T09:08:02.497Z,57.27
2018-12-03T09:10:31.176Z,70.97
2018-12-03T09:13:36.366Z,69.47
2018-12-03T09:16:04.925Z,71.03
2018-12-03T09:18:35.603Z,71.23
2018-12-03T09:21:08.692Z,56.03
2018-12-03T09:23:37.507Z,70.47
2018-12-03T09:26:07.413Z,69.20
2018-12-03T09:28:36.320Z,71.13
2018-12-03T09:31:05.001Z,67.40
2018-12-03T09:33:33.666Z,66.40
2018-12-03T09:36:02.403Z,51.43
2018-12-03T09:38:35.506Z,67.23
2018-12-03T09:41:05.965Z,63.80
2018-12-03T09:43:32.672Z,65.63
2018-12-03T09:46:01.300Z,62.93
2018-12-03T09:48:30.160Z,58.13
2018-12-03T09:50:58.712Z,63.33
2018-12-03T09:53:27.307Z,63.50
2018-12-03T09:55:56.081Z,63.30
2018-12-03T09:58:25.048Z,61.43
2018-12-03T10:00:53.688Z,41.57
2018-12-03T10:03:24.521Z,61.03
2018-12-03T10:05:57.553Z,60.47
2018-12-03T10:08:30.613Z,60.60
2018-12-03T10:11:02.029Z,58.50
2018-12-03T10:13:31.825Z,56.23
2018-12-03T10:16:00.406Z,43.23
2018-12-03T10:18:29.037Z,36.37
2018-12-03T10:21:00.130Z,58.63
2018-12-03T10:23:28.796Z,59.50
2018-12-03T10:25:58.608Z,56.67
2018-12-03T10:28:28.212Z,56.57
2018-12-03T10:30:57.724Z,39.83
2018-12-03T10:33:32.164Z,57.83
2018-12-03T10:36:06.136Z,57.87
2018-12-03T10:38:36.470Z,56.20
2018-12-03T10:41:14.510Z,55.63
2018-12-03T10:43:43.303Z,46.80
2018-12-03T10:46:12.106Z,56.60
2018-12-03T10:48:40.660Z,54.03
2018-12-03T10:51:14.110Z,53.50
2018-12-03T10:53:42.859Z,54.33
2018-12-03T10:56:11.532Z,47.53
2018-12-03T10:58:43.805Z,53.47
2018-12-03T11:01:17.661Z,53.97
2018-12-03T11:03:51.919Z,55.87
2018-12-03T11:06:21.871Z,56.13
2018-12-03T11:08:51.017Z,51.57
2018-12-03T11:11:19.888Z,56.13
2018-12-03T11:13:49.180Z,57.97
2018-12-03T11:16:23.867Z,57.90
2018-12-03T11:18:54.066Z,57.50
2018-12-03T11:21:22.760Z,56.40
2018-12-03T11:23:51.735Z,53.40
2018-12-03T11:26:21.026Z,55.57
2018-12-03T11:28:53.466Z,57.83
2018-12-03T11:31:31.188Z,55.60
2018-12-03T11:33:59.918Z,55.57
2018-12-03T11:36:31.915Z,36.00
2018-12-03T11:39:10.283Z,56.37
2018-12-03T11:41:38.892Z,53.30
2018-12-03T11:44:07.759Z,56.27
2018-12-03T11:46:36.465Z,53.93
2018-12-03T11:49:05.957Z,55.67
2018-12-03T11:51:34.616Z,53.27
2018-12-03T11:54:03.232Z,55.67
2018-12-03T11:56:31.862Z,56.23
2018-12-03T11:59:00.374Z,56.27
2018-12-03T12:01:28.946Z,50.33
2018-12-03T12:03:58.266Z,62.43
2018-12-03T12:06:26.805Z,59.17
2018-12-03T12:08:56.341Z,56.33
2018-12-03T12:11:25.012Z,57.20
2018-12-03T12:13:53.536Z,41.57
2018-12-03T12:16:22.275Z,57.63
2018-12-03T12:18:51.055Z,57.17
2018-12-03T12:21:20.656Z,57.50
2018-12-03T12:23:49.328Z,37.47
2018-12-03T12:26:18.098Z,58.63
2018-12-03T12:28:46.666Z,58.00
2018-12-03T12:31:16.191Z,57.97
2018-12-03T12:33:45.647Z,43.77
2018-12-03T12:36:14.215Z,60.00
2018-12-03T12:38:43.056Z,61.30
2018-12-03T12:41:11.658Z,57.17
2018-12-03T12:43:40.228Z,44.13
2018-12-03T12:46:11.326Z,58.20
2018-12-03T12:48:40.705Z,61.03
2018-12-03T12:51:09.312Z,61.77
2018-12-03T12:53:37.994Z,48.20
2018-12-03T12:56:07.277Z,60.33
2018-12-03T12:58:36.150Z,61.37
2018-12-03T13:01:05.636Z,60.03
2018-12-03T13:03:34.213Z,61.70
2018-12-03T13:06:02.929Z,51.20
2018-12-03T13:08:31.538Z,61.57
2018-12-03T13:11:00.087Z,61.00
2018-12-03T13:13:29.105Z,59.33
2018-12-03T13:15:57.854Z,59.27
2018-12-03T13:18:26.484Z,64.13
2018-12-03T13:20:54.978Z,62.50
2018-12-03T13:23:23.914Z,62.20
2018-12-03T13:25:52.478Z,64.70
2018-12-03T13:28:21.132Z,57.30
2018-12-03T13:30:49.794Z,64.70
2018-12-03T13:33:19.078Z,65.37
2018-12-03T13:36:20.725Z,64.97
2018-12-03T13:38:49.268Z,64.93
2018-12-03T13:41:17.841Z,49.00
2018-12-03T13:43:46.425Z,63.37
2018-12-03T13:46:15.293Z,65.83
2018-12-03T13:48:43.864Z,63.27
2018-12-03T13:51:12.705Z,61.07
2018-12-03T13:53:41.284Z,62.80
2018-12-03T13:56:09.922Z,60.20
2018-12-03T13:58:38.561Z,65.40
2018-12-03T14:01:07.098Z,65.47
2018-12-03T14:03:37.050Z,65.43
2018-12-03T14:06:14.390Z,65.13
2018-12-03T14:13:02.140Z,65.73
2018-12-03T14:16:50.374Z,66.27
2018-12-03T14:19:28.339Z,67.67
2018-12-03T14:22:14.969Z,51.83
2018-12-03T14:24:43.739Z,68.90
2018-12-03T14:27:12.358Z,71.17
2018-12-03T14:29:40.997Z,69.57
2018-12-03T14:32:09.663Z,49.63
2018-12-03T14:34:38.628Z,69.37
2018-12-03T14:37:07.425Z,70.00
2018-12-03T14:39:36.020Z,66.07
2018-12-03T14:42:04.948Z,70.67
2018-12-03T14:44:33.532Z,71.30
2018-12-03T14:47:02.462Z,71.40
2018-12-03T14:49:31.011Z,67.77
2018-12-03T14:51:59.536Z,71.97
2018-12-03T14:54:28.490Z,72.93
2018-12-03T14:56:57.050Z,73.00
2018-12-03T14:59:26.318Z,49.40
2018-12-03T15:01:55.847Z,73.93
2018-12-03T15:04:24.367Z,71.50
2018-12-03T15:06:52.905Z,71.20
2018-12-03T15:09:21.508Z,71.13
2018-12-03T15:11:50.012Z,74.70
2018-12-03T15:14:18.482Z,74.07
2018-12-03T15:16:47.116Z,47.13
2018-12-03T15:19:16.178Z,72.93
2018-12-03T15:21:44.854Z,73.27
2018-12-03T15:24:13.582Z,66.10
2018-12-03T15:26:42.341Z,65.13
2018-12-03T15:29:11.088Z,70.77
2018-12-03T15:31:40.057Z,71.50
2018-12-03T15:34:08.616Z,65.17
2018-12-03T15:36:37.578Z,71.90
2018-12-03T15:39:09.450Z,73.23
2018-12-03T15:41:38.019Z,59.93
2018-12-03T15:44:06.821Z,80.80
2018-12-03T15:46:35.805Z,72.20
2018-12-03T15:49:05.116Z,70.47
2018-12-03T15:51:34.301Z,65.23
2018-12-03T15:54:03.976Z,69.77
2018-12-03T15:56:34.140Z,74.53
2018-12-03T15:59:04.815Z,69.57
2018-12-03T16:01:34.199Z,66.70
2018-12-03T16:04:03.151Z,71.23
2018-12-03T16:06:32.542Z,72.47
2018-12-03T16:09:01.993Z,68.77
2018-12-03T16:11:31.157Z,70.53
2018-12-03T16:14:00.671Z,70.87
2018-12-03T16:16:30.145Z,70.90
2018-12-03T16:18:59.996Z,70.60
2018-12-03T16:21:29.084Z,73.53
2018-12-03T16:23:58.568Z,80.67
2018-12-03T16:26:27.950Z,74.90
2018-12-03T16:28:58.014Z,74.10
2018-12-03T16:31:27.874Z,73.07
2018-12-03T16:33:57.416Z,73.40
2018-12-03T16:36:27.322Z,72.20
2018-12-03T16:38:57.421Z,68.47
2018-12-03T16:41:26.970Z,70.00
2018-12-03T16:43:56.598Z,68.83
2018-12-03T16:46:26.289Z,69.30
2018-12-03T16:48:55.751Z,73.13
2018-12-03T16:51:25.344Z,70.83
2018-12-03T16:53:55.088Z,70.50
2018-12-03T16:56:24.535Z,68.67
2018-12-03T16:58:54.058Z,70.53
2018-12-03T17:01:23.530Z,68.57
2018-12-03T17:03:53.998Z,70.17
2018-12-03T17:06:23.778Z,67.43
2018-12-03T17:08:53.240Z,70.77
2018-12-03T17:11:22.748Z,70.67
2018-12-03T17:13:52.135Z,72.00
2018-12-03T17:16:21.739Z,73.40
2018-12-03T17:18:51.464Z,71.63
2018-12-03T17:21:36.023Z,71.00
2018-12-03T17:24:09.954Z,73.60
2018-12-03T17:26:39.911Z,73.73
2018-12-03T17:29:10.014Z,73.73
2018-12-03T17:31:40.290Z,71.90
2018-12-03T17:34:10.079Z,69.87
2018-12-03T17:36:39.690Z,72.10
2018-12-03T17:39:09.975Z,70.63
2018-12-03T17:41:39.628Z,74.10
2018-12-03T17:44:09.344Z,70.90
2018-12-03T17:46:38.854Z,73.33
2018-12-03T17:49:08.518Z,71.83
2018-12-03T17:51:38.485Z,71.67
2018-12-03T17:54:08.248Z,69.90
2018-12-03T17:56:38.514Z,69.83
2018-12-03T17:59:07.434Z,70.40
2018-12-03T18:01:36.858Z,72.73
2018-12-03T18:04:09.836Z,73.43
2018-12-03T18:06:41.494Z,73.60
2018-12-03T18:09:11.063Z,72.60
2018-12-03T18:11:41.081Z,73.07
2018-12-03T18:14:13.444Z,74.67
2018-12-03T18:16:43.177Z,73.43
2018-12-03T18:19:13.360Z,73.23
2018-12-03T18:21:44.372Z,73.47
2018-12-03T18:24:15.312Z,77.83
2018-12-03T18:26:45.173Z,80.83
2018-12-03T18:29:15.787Z,76.17
2018-12-03T18:31:45.745Z,77.60
2018-12-03T18:34:15.598Z,81.77
2018-12-03T18:36:45.485Z,90.13
2018-12-03T18:39:15.653Z,82.87
2018-12-03T18:41:45.633Z,89.13
2018-12-03T18:44:15.319Z,95.43
2018-12-03T18:46:45.020Z,97.00
2018-12-03T18:49:19.864Z,97.87
2018-12-03T18:51:53.645Z,96.63
2018-12-03T18:54:24.175Z,100.10
2018-12-03T18:56:56.963Z,99.07
2018-12-03T18:59:26.453Z,99.70
2018-12-03T19:01:55.980Z,97.27
2018-12-03T19:04:27.120Z,94.27
2018-12-03T19:06:56.734Z,98.83
2018-12-03T19:09:26.166Z,98.40
2018-12-03T19:11:55.781Z,94.80
2018-12-03T19:14:25.606Z,95.60
2018-12-03T19:16:55.971Z,92.20
2018-12-03T19:19:25.471Z,91.67
2018-12-03T19:21:55.015Z,93.83
2018-12-03T19:24:24.607Z,93.33
2018-12-03T19:26:54.205Z,95.97
2018-12-03T19:29:23.544Z,96.83
2018-12-03T19:31:53.174Z,94.67
2018-12-03T19:34:22.844Z,95.70
2018-12-03T19:36:52.414Z,94.53
2018-12-03T19:39:22.380Z,92.30
2018-12-03T19:41:51.712Z,94.70
2018-12-03T19:44:24.231Z,96.60
2018-12-03T19:46:55.632Z,100.60
2018-12-03T19:49:25.733Z,101.97
2018-12-03T19:51:56.189Z,98.90
2018-12-03T19:54:27.326Z,101.93
2018-12-03T19:56:57.828Z,102.80
2018-12-03T19:59:32.266Z,103.30
2018-12-03T20:02:02.189Z,101.83
2018-12-03T20:04:36.659Z,103.50
2018-12-03T20:07:06.127Z,105.20
2018-12-03T20:09:36.092Z,108.37
2018-12-03T20:12:05.582Z,106.93
2018-12-03T20:14:36.214Z,109.03
2018-12-03T20:17:07.107Z,110.53
2018-12-03T20:19:36.585Z,111.27
2018-12-03T20:22:07.709Z,107.23
2018-12-03T20:24:37.058Z,110.83
2018-12-03T20:27:14.352Z,108.63
2018-12-03T20:29:52.252Z,107.63
2018-12-03T20:33:32.140Z,108.50
2018-12-03T20:37:13.781Z,110.93
2018-12-03T20:40:11.274Z,113.80
2018-12-03T20:42:42.907Z,109.93
2018-12-03T20:47:28.497Z,110.27
2018-12-03T20:51:08.051Z,109.47
2018-12-03T20:53:44.144Z,106.00
2018-12-03T20:56:14.175Z,108.87
2018-12-03T20:58:43.503Z,108.83
2018-12-03T21:01:14.546Z,108.90
2018-12-03T21:03:44.183Z,107.30
2018-12-03T21:06:13.440Z,109.20
2018-12-03T21:08:42.774Z,112.33
2018-12-03T21:11:12.284Z,111.60
2018-12-03T21:13:41.656Z,110.43
2018-12-03T21:16:11.005Z,109.53
2018-12-03T21:18:40.336Z,109.80
2018-12-03T21:21:10.713Z,110.93
2018-12-03T21:23:40.247Z,109.93
2018-12-03T21:26:09.734Z,109.67
2018-12-03T21:28:40.943Z,110.00
2018-12-03T21:31:10.527Z,110.90
2018-12-03T21:33:39.938Z,110.57
2018-12-03T21:36:09.626Z,108.30
2018-12-03T21:38:38.941Z,109.57
2018-12-03T21:41:08.895Z,112.87
2018-12-03T21:43:38.418Z,110.30
2018-12-03T21:46:07.869Z,111.37
2018-12-03T21:48:37.111Z,113.17
2018-12-03T21:51:06.612Z,110.60
2018-12-03T21:53:35.848Z,111.33
2018-12-03T21:56:05.095Z,109.43
2018-12-03T21:58:35.087Z,112.07
2018-12-03T22:01:04.873Z,109.70
2018-12-03T22:03:34.327Z,112.60
2018-12-03T22:06:03.852Z,111.80
2018-12-03T22:08:33.634Z,112.77
2018-12-03T22:11:02.918Z,116.10
2018-12-03T22:13:32.148Z,110.30
2018-12-03T22:16:01.384Z,113.30
2018-12-03T22:18:30.850Z,112.50
2018-12-03T22:21:00.684Z,116.53
2018-12-03T22:23:30.112Z,115.63
2018-12-03T22:25:59.511Z,119.00
2018-12-03T22:28:27.998Z,115.60
2018-12-03T22:30:56.906Z,115.07
2018-12-03T22:33:25.707Z,116.70
2018-12-03T22:35:55.152Z,115.57
2018-12-03T22:38:23.984Z,116.90
2018-12-03T22:40:52.762Z,114.33
2018-12-03T22:43:21.467Z,110.90
2018-12-03T22:45:50.276Z,112.43
2018-12-03T22:48:18.825Z,110.47
2018-12-03T22:50:47.379Z,108.50
2018-12-03T22:53:15.922Z,112.33
2018-12-03T22:55:45.193Z,110.97
2018-12-03T22:58:14.628Z,112.03
2018-12-03T23:00:47.939Z,110.97
2018-12-03T23:03:17.093Z,111.33
2018-12-03T23:05:45.577Z,110.00
2018-12-03T23:08:14.449Z,106.33
2018-12-03T23:10:42.965Z,107.70
2018-12-03T23:13:11.482Z,110.10
2018-12-03T23:15:40.376Z,107.17
2018-12-03T23:18:08.862Z,107.67
2018-12-03T23:20:37.392Z,109.10
2018-12-03T23:23:06.560Z,104.47
2018-12-03T23:25:35.878Z,103.87
2018-12-03T23:28:04.408Z,107.63
2018-12-03T23:30:32.893Z,110.80
2018-12-03T23:33:02.142Z,108.03
2018-12-03T23:35:30.689Z,109.40
2018-12-03T23:37:59.267Z,107.17
2018-12-03T23:40:27.738Z,109.67
2018-12-03T23:42:56.892Z,106.97
2018-12-03T23:45:27.040Z,107.67
2018-12-03T23:47:56.289Z,109.33
2018-12-03T23:50:24.780Z,107.17
2018-12-03T23:52:53.685Z,108.53
2018-12-03T23:55:22.727Z,107.50
2018-12-03T23:57:51.389Z,106.67
